createdAt,value
2018-11-22T00:01:44.836Z,58.65
2018-11-22T00:04:20.509Z,59.73
2018-11-22T00:06:56.236Z,61.02
2018-11-22T00:09:31.636Z,62.75
2018-11-22T00:12:06.499Z,50.28
2018-11-22T00:14:42.462Z,66.77
2018-11-22T00:17:17.862Z,67.32
2018-11-22T00:19:52.165Z,70.17
2018-11-22T00:22:27.276Z,66.30
2018-11-22T00:25:02.721Z,63.83
2018-11-22T00:27:39.111Z,68.92
2018-11-22T00:30:15.953Z,55.03
2018-11-22T00:32:51.040Z,64.32
2018-11-22T00:35:27.088Z,71.02
2018-11-22T00:38:02.447Z,67.20
2018-11-22T00:40:37.166Z,70.35
2018-11-22T00:43:11.894Z,63.48
2018-11-22T00:45:47.265Z,74.95
2018-11-22T00:48:22.659Z,77.15
2018-11-22T00:50:57.737Z,70.50
2018-11-22T00:53:32.443Z,66.97
2018-11-22T00:56:07.579Z,62.08
2018-11-22T00:58:42.493Z,77.10
2018-11-22T01:01:17.554Z,62.45
2018-11-22T01:03:52.699Z,74.22
2018-11-22T01:06:27.230Z,70.97
2018-11-22T01:09:02.361Z,64.47
2018-11-22T01:11:38.359Z,72.78
2018-11-22T01:14:13.784Z,74.95
2018-11-22T01:16:49.242Z,68.92
2018-11-22T01:19:24.722Z,76.70
2018-11-22T01:22:00.156Z,73.40
2018-11-22T01:24:35.066Z,70.25
2018-11-22T01:27:10.078Z,67.45
2018-11-22T01:29:44.542Z,71.47
2018-11-22T01:32:18.922Z,60.48
2018-11-22T01:34:54.448Z,63.42
2018-11-22T01:37:29.588Z,65.35
2018-11-22T01:40:04.942Z,68.30
2018-11-22T01:42:40.213Z,62.98
2018-11-22T01:45:15.933Z,76.53
2018-11-22T01:47:51.132Z,69.37
2018-11-22T01:50:26.329Z,67.45
2018-11-22T01:53:01.019Z,69.25
2018-11-22T01:55:36.038Z,74.65
2018-11-22T01:58:11.103Z,62.85
2018-11-22T02:00:46.270Z,68.35
2018-11-22T02:03:21.375Z,65.78
2018-11-22T02:05:56.021Z,64.72
2018-11-22T02:08:31.486Z,64.32
2018-11-22T02:11:06.056Z,66.00
2018-11-22T02:13:39.940Z,66.57
2018-11-22T02:16:14.923Z,68.45
2018-11-22T02:18:50.450Z,65.32
2018-11-22T02:21:27.315Z,64.03
2018-11-22T02:24:02.286Z,67.35
2018-11-22T02:26:36.576Z,66.60
2018-11-22T02:29:11.605Z,68.30
2018-11-22T02:31:46.491Z,65.15
2018-11-22T02:34:21.713Z,69.45
2018-11-22T02:36:57.112Z,54.63
2018-11-22T02:39:31.880Z,65.80
2018-11-22T02:42:06.938Z,65.12
2018-11-22T02:44:42.149Z,66.02
2018-11-22T02:47:17.189Z,69.90
2018-11-22T02:49:52.325Z,66.57
2018-11-22T02:52:27.300Z,63.90
2018-11-22T02:55:02.017Z,64.25
2018-11-22T02:57:37.570Z,61.42
2018-11-22T03:00:50.184Z,62.58
2018-11-22T03:03:24.784Z,69.25
2018-11-22T03:05:59.834Z,65.85
2018-11-22T03:08:35.269Z,74.22
2018-11-22T03:11:10.521Z,68.78
2018-11-22T03:13:45.540Z,67.62
2018-11-22T03:16:20.591Z,72.45
2018-11-22T03:18:54.800Z,68.50
2018-11-22T03:21:29.060Z,63.40
2018-11-22T03:24:04.172Z,63.83
2018-11-22T03:26:39.486Z,74.72
2018-11-22T03:29:14.588Z,74.53
2018-11-22T03:31:49.614Z,68.67
2018-11-22T03:34:25.094Z,67.65
2018-11-22T03:37:02.814Z,63.42
2018-11-22T03:39:37.244Z,71.45
2018-11-22T03:42:11.873Z,58.65
2018-11-22T03:44:47.183Z,74.87
2018-11-22T03:47:22.009Z,64.35
2018-11-22T03:49:57.084Z,66.57
2018-11-22T03:52:31.874Z,81.85
2018-11-22T03:55:08.339Z,67.15
2018-11-22T03:57:43.606Z,75.70
2018-11-22T04:00:22.646Z,73.70
2018-11-22T04:02:57.675Z,69.80
2018-11-22T04:05:32.285Z,77.12
2018-11-22T04:08:07.423Z,66.07
2018-11-22T04:10:42.175Z,85.97
2018-11-22T04:13:17.285Z,85.20
2018-11-22T04:15:52.241Z,80.10
2018-11-22T04:18:27.345Z,70.22
2018-11-22T04:21:02.688Z,77.92
2018-11-22T04:23:38.238Z,75.17
2018-11-22T04:26:12.893Z,83.27
2018-11-22T04:28:49.337Z,84.70
2018-11-22T04:31:24.378Z,76.55
2018-11-22T04:33:59.378Z,76.17
2018-11-22T04:36:34.468Z,70.22
2018-11-22T04:39:10.854Z,80.97
2018-11-22T04:41:46.254Z,77.20
2018-11-22T04:44:20.988Z,71.35
2018-11-22T04:46:56.259Z,83.27
2018-11-22T04:49:31.630Z,88.80
2018-11-22T04:52:06.730Z,83.07
2018-11-22T04:54:41.046Z,87.92
2018-11-22T04:57:16.602Z,90.65
2018-11-22T04:59:51.804Z,92.65
2018-11-22T05:02:26.205Z,106.95
2018-11-22T05:05:01.567Z,77.72
2018-11-22T05:07:36.621Z,77.15
2018-11-22T05:10:12.968Z,86.80
2018-11-22T05:12:49.267Z,85.12
2018-11-22T05:15:26.011Z,74.15
2018-11-22T05:18:01.063Z,84.97
2018-11-22T05:20:36.053Z,85.47
2018-11-22T05:23:11.109Z,79.05
2018-11-22T05:25:45.373Z,79.70
2018-11-22T05:28:20.123Z,91.97
2018-11-22T05:30:55.243Z,89.60
2018-11-22T05:33:29.957Z,91.02
2018-11-22T05:36:04.941Z,87.47
2018-11-22T05:38:39.627Z,77.90
2018-11-22T05:41:15.078Z,85.53
2018-11-22T05:43:50.165Z,82.17
2018-11-22T05:46:24.488Z,78.95
2018-11-22T05:48:58.330Z,76.25
2018-11-22T05:51:33.349Z,77.42
2018-11-22T05:54:08.820Z,71.15
2018-11-22T05:56:44.017Z,68.55
2018-11-22T05:59:18.676Z,63.13
2018-11-22T06:01:52.959Z,70.85
2018-11-22T06:04:28.505Z,83.00
2018-11-22T06:07:03.336Z,68.62
2018-11-22T06:09:39.538Z,64.27
2018-11-22T06:12:14.260Z,79.32
2018-11-22T06:14:48.887Z,60.15
2018-11-22T06:17:24.371Z,68.78
2018-11-22T06:19:59.171Z,56.63
2018-11-22T06:22:35.582Z,63.17
2018-11-22T06:25:11.804Z,63.75
2018-11-22T06:27:46.710Z,64.58
2018-11-22T06:30:22.686Z,60.85
2018-11-22T06:32:58.532Z,55.80
2018-11-22T06:35:33.373Z,61.35
2018-11-22T06:38:08.503Z,59.03
2018-11-22T06:40:43.552Z,68.28
2018-11-22T06:43:18.645Z,63.08
2018-11-22T06:45:56.280Z,52.40
2018-11-22T06:48:31.335Z,63.20
2018-11-22T06:51:06.219Z,54.93
2018-11-22T06:53:41.341Z,59.60
2018-11-22T06:56:16.001Z,63.55
2018-11-22T06:58:50.807Z,63.02
2018-11-22T07:01:25.874Z,52.38
2018-11-22T07:04:01.367Z,60.33
2018-11-22T07:06:35.977Z,62.88
2018-11-22T07:09:10.980Z,52.62
2018-11-22T07:11:46.995Z,61.02
2018-11-22T07:14:21.666Z,58.78
2018-11-22T07:16:56.683Z,52.08
2018-11-22T07:19:31.983Z,58.17
2018-11-22T07:22:06.560Z,59.53
2018-11-22T07:24:41.610Z,59.05
2018-11-22T07:27:16.722Z,53.17
2018-11-22T07:29:51.671Z,49.58
2018-11-22T07:32:26.723Z,58.48
2018-11-22T07:35:02.186Z,55.30
2018-11-22T07:37:37.567Z,54.75
2018-11-22T07:40:17.827Z,64.30
2018-11-22T07:42:53.355Z,65.52
2018-11-22T07:45:29.049Z,60.55
2018-11-22T07:48:04.710Z,58.73
2018-11-22T07:50:39.861Z,63.23
2018-11-22T07:53:15.082Z,61.08
2018-11-22T07:55:49.884Z,61.15
2018-11-22T07:58:24.575Z,66.17
2018-11-22T08:00:59.287Z,54.70
2018-11-22T08:03:34.015Z,56.73
2018-11-22T08:06:09.897Z,58.28
2018-11-22T08:08:45.293Z,58.68
2018-11-22T08:11:20.268Z,58.23
2018-11-22T08:13:55.667Z,53.63
2018-11-22T08:16:30.450Z,54.03
2018-11-22T08:19:05.846Z,59.95
2018-11-22T08:21:40.487Z,55.85
2018-11-22T08:24:15.502Z,52.00
2018-11-22T08:26:50.264Z,53.50
2018-11-22T08:29:25.059Z,57.70
2018-11-22T08:32:00.142Z,59.05
2018-11-22T08:34:35.384Z,60.20
2018-11-22T08:37:10.562Z,51.90
2018-11-22T08:39:46.015Z,54.75
2018-11-22T08:42:21.292Z,47.83
2018-11-22T08:44:56.418Z,48.92
2018-11-22T08:47:31.458Z,44.95
2018-11-22T08:50:07.719Z,50.08
2018-11-22T08:52:43.981Z,46.45
2018-11-22T08:55:19.376Z,43.70
2018-11-22T08:57:54.910Z,44.35
2018-11-22T09:00:33.575Z,44.40
2018-11-22T09:03:09.852Z,50.50
2018-11-22T09:05:44.576Z,44.18
2018-11-22T09:08:19.703Z,50.12
2018-11-22T09:10:56.070Z,41.92
2018-11-22T09:13:31.140Z,44.03
2018-11-22T09:16:06.183Z,47.53
2018-11-22T09:18:41.546Z,45.43
2018-11-22T09:21:16.138Z,47.38
2018-11-22T09:23:51.234Z,56.00
2018-11-22T09:26:26.199Z,43.45
2018-11-22T09:29:01.640Z,50.33
2018-11-22T09:31:36.938Z,48.33
2018-11-22T09:34:12.447Z,50.33
2018-11-22T09:36:47.187Z,51.95
2018-11-22T09:39:22.332Z,46.37
2018-11-22T09:41:57.870Z,47.90
2018-11-22T09:44:39.060Z,46.53
2018-11-22T09:47:11.012Z,41.37
2018-11-22T09:49:46.029Z,47.67
2018-11-22T09:52:21.615Z,54.73
2018-11-22T09:54:59.138Z,48.13
2018-11-22T09:57:34.161Z,50.58
2018-11-22T10:00:22.145Z,54.48
2018-11-22T10:02:56.912Z,52.17
2018-11-22T10:05:33.154Z,48.83
2018-11-22T10:08:08.277Z,49.03
2018-11-22T10:10:43.106Z,46.48
2018-11-22T10:13:17.945Z,44.53
2018-11-22T10:15:53.092Z,52.00
2018-11-22T10:18:27.685Z,50.50
2018-11-22T10:21:03.522Z,52.35
2018-11-22T10:23:39.084Z,49.48
2018-11-22T10:26:14.222Z,44.53
2018-11-22T10:28:50.128Z,43.42
2018-11-22T10:31:25.896Z,46.25
2018-11-22T10:34:00.113Z,46.00
2018-11-22T10:36:34.822Z,48.08
2018-11-22T10:39:10.124Z,39.30
2018-11-22T10:41:46.014Z,45.67
2018-11-22T10:44:21.030Z,41.33
2018-11-22T10:46:55.770Z,46.58
2018-11-22T10:49:31.831Z,42.50
2018-11-22T10:52:07.214Z,44.33
2018-11-22T10:54:41.965Z,43.35
2018-11-22T12:16:19.892Z,36.55
2018-11-22T12:18:52.473Z,37.83
2018-11-22T12:21:25.124Z,36.90
2018-11-22T12:23:57.832Z,30.68
2018-11-22T12:26:30.489Z,37.58
2018-11-22T12:29:03.222Z,31.15
2018-11-22T12:31:35.867Z,29.67
2018-11-22T12:34:30.131Z,32.23
2018-11-22T12:37:31.465Z,36.40
2018-11-22T12:40:07.639Z,28.25
2018-11-22T12:42:40.260Z,37.00
2018-11-22T12:45:12.924Z,33.42
2018-11-22T12:47:45.559Z,38.90
2018-11-22T12:50:18.145Z,35.63
2018-11-22T12:52:50.801Z,35.13
2018-11-22T12:55:23.457Z,36.77
2018-11-22T12:57:56.386Z,37.60
2018-11-22T13:00:29.140Z,35.50
2018-11-22T13:03:02.000Z,33.58
2018-11-22T13:05:34.821Z,33.37
2018-11-22T13:08:07.696Z,33.15
2018-11-22T13:10:40.484Z,32.50
2018-11-22T13:15:17.597Z,33.83
2018-11-22T13:17:50.575Z,28.10
2018-11-22T13:25:33.336Z,22.98
2018-11-22T13:28:05.357Z,16.13
2018-11-22T13:33:16.046Z,15.23
2018-11-22T13:35:49.244Z,9.48
2018-11-22T13:42:10.194Z,24.30
2018-11-22T13:44:42.927Z,31.52
2018-11-22T13:47:15.601Z,35.58
2018-11-22T13:49:48.301Z,31.30
2018-11-22T13:52:20.929Z,31.70
2018-11-22T13:54:53.517Z,32.93
2018-11-22T13:57:26.190Z,28.87
2018-11-22T13:59:58.795Z,30.60
2018-11-22T14:02:31.423Z,34.58
2018-11-22T14:05:07.865Z,29.82
2018-11-22T14:07:37.542Z,32.17
2018-11-22T14:10:13.051Z,34.75
2018-11-22T14:12:45.719Z,26.93
2018-11-22T14:15:19.761Z,31.33
2018-11-22T14:17:53.977Z,33.33
2018-11-22T14:20:28.270Z,30.77
2018-11-22T14:23:00.934Z,32.50
2018-11-22T14:25:33.551Z,32.40
2018-11-22T14:28:06.181Z,30.70
2018-11-22T14:30:38.819Z,30.37
2018-11-22T14:33:11.434Z,35.33
2018-11-22T14:35:44.133Z,34.18
2018-11-22T14:38:16.780Z,36.08
2018-11-22T14:40:49.523Z,35.38
2018-11-22T14:43:22.157Z,29.50
2018-11-22T14:45:54.805Z,28.77
2018-11-22T14:48:27.558Z,31.57
2018-11-22T14:51:05.318Z,31.10
2018-11-22T14:53:38.027Z,31.57
2018-11-22T14:56:10.748Z,33.45
2018-11-22T14:58:43.402Z,31.45
2018-11-22T15:01:16.065Z,34.18
2018-11-22T15:03:48.709Z,36.65
2018-11-22T15:06:21.294Z,32.98
2018-11-22T15:08:53.966Z,31.55
2018-11-22T15:11:26.871Z,30.68
2018-11-22T15:13:59.462Z,33.58
2018-11-22T15:16:32.147Z,40.40
2018-11-22T15:19:05.089Z,29.40
2018-11-22T15:21:37.710Z,33.63
2018-11-22T15:24:10.413Z,31.27
2018-11-22T15:26:43.119Z,32.53
2018-11-22T15:29:15.808Z,35.58
2018-11-22T15:31:48.474Z,35.63
2018-11-22T15:34:21.159Z,38.38
2018-11-22T15:36:53.742Z,34.65
2018-11-22T15:39:26.339Z,31.02
2018-11-22T15:41:58.986Z,31.93
2018-11-22T15:44:31.599Z,29.05
2018-11-22T15:47:04.810Z,33.88
2018-11-22T15:49:37.641Z,38.60
2018-11-22T15:52:10.311Z,35.70
2018-11-22T15:54:42.934Z,30.88
2018-11-22T15:57:15.600Z,32.48
2018-11-22T15:59:48.268Z,33.53
2018-11-22T16:02:20.907Z,37.23
2018-11-22T16:04:53.560Z,33.48
2018-11-22T16:07:26.230Z,37.45
2018-11-22T16:09:59.068Z,33.80
2018-11-22T16:12:31.702Z,34.13
2018-11-22T16:15:07.081Z,34.78
2018-11-22T16:17:40.502Z,37.15
2018-11-22T16:20:13.223Z,37.83
2018-11-22T16:22:45.935Z,33.83
2018-11-22T16:25:18.634Z,32.30
2018-11-22T16:27:51.415Z,39.70
2018-11-22T16:30:25.574Z,35.60
2018-11-22T16:32:58.252Z,32.10
2018-11-22T16:35:33.347Z,38.53
2018-11-22T16:38:04.474Z,34.63
2018-11-22T16:40:37.249Z,36.77
2018-11-22T16:43:09.976Z,28.85
2018-11-22T16:45:42.744Z,31.70
2018-11-22T16:48:15.532Z,33.33
2018-11-22T16:50:48.261Z,34.33
2018-11-22T16:53:21.080Z,33.73
2018-11-22T16:55:53.723Z,35.78
2018-11-22T16:58:26.526Z,36.75
2018-11-22T17:00:59.246Z,30.90
2018-11-22T17:03:32.014Z,32.17
2018-11-22T17:06:05.152Z,34.58
2018-11-22T17:08:37.868Z,34.23
2018-11-22T17:11:10.650Z,41.18
2018-11-22T17:13:43.335Z,31.77
2018-11-22T17:16:17.026Z,32.20
2018-11-22T17:18:48.803Z,34.43
2018-11-22T17:21:21.423Z,35.30
2018-11-22T17:23:54.127Z,31.45
2018-11-22T17:26:26.968Z,32.08
2018-11-22T17:28:59.686Z,34.85
2018-11-22T17:31:32.462Z,38.58
2018-11-22T17:34:05.530Z,27.85
2018-11-22T17:36:38.222Z,29.48
2018-11-22T17:39:12.965Z,32.98
2018-11-22T17:41:45.645Z,31.40
2018-11-22T17:44:18.284Z,34.35
2018-11-22T17:46:50.918Z,33.10
2018-11-22T17:49:23.688Z,33.30
2018-11-22T17:51:56.434Z,30.02
2018-11-22T17:54:29.106Z,39.45
2018-11-22T17:57:01.815Z,32.28
2018-11-22T17:59:34.514Z,36.25
2018-11-22T18:02:07.314Z,31.50
2018-11-22T18:04:40.395Z,32.15
2018-11-22T18:07:13.092Z,36.85
2018-11-22T18:09:45.769Z,32.35
2018-11-22T18:12:18.451Z,31.35
2018-11-22T18:14:51.059Z,33.28
2018-11-22T18:17:23.774Z,30.45
2018-11-22T18:19:56.495Z,30.02
2018-11-22T18:22:29.172Z,37.05
2018-11-22T18:25:01.828Z,33.60
2018-11-22T18:27:34.529Z,31.97
2018-11-22T18:30:11.111Z,34.53
2018-11-22T18:32:45.233Z,33.05
2018-11-22T18:35:17.914Z,33.83
2018-11-22T18:37:50.639Z,34.05
2018-11-22T18:40:25.579Z,36.83
2018-11-22T18:42:59.421Z,30.32
2018-11-22T18:45:39.520Z,37.98
2018-11-22T18:48:13.710Z,33.15
2018-11-22T18:50:47.117Z,33.83
2018-11-22T18:53:19.825Z,36.08
2018-11-22T18:55:52.749Z,32.48
2018-11-22T18:58:25.470Z,33.20
2018-11-22T19:00:58.220Z,33.40
2018-11-22T19:03:30.965Z,37.33
2018-11-22T19:06:03.673Z,30.52
2018-11-22T19:08:36.421Z,32.65
2018-11-22T19:11:09.190Z,30.92
2018-11-22T19:13:41.825Z,39.45
2018-11-22T19:16:14.525Z,34.98
2018-11-22T19:18:47.224Z,31.82
2018-11-22T19:21:19.931Z,33.53
2018-11-22T19:23:52.559Z,31.10
2018-11-22T19:26:25.278Z,35.52
2018-11-22T19:28:57.994Z,35.17
2018-11-22T19:31:30.698Z,31.77
2018-11-22T19:34:03.468Z,39.18
2018-11-22T19:36:36.231Z,32.80
2018-11-22T19:39:08.951Z,35.65
2018-11-22T19:41:41.636Z,37.75
2018-11-22T19:44:14.300Z,32.70
2018-11-22T19:46:46.993Z,37.00
2018-11-22T19:49:19.721Z,35.08
2018-11-22T19:51:52.442Z,32.40
2018-11-22T19:54:25.151Z,33.42
2018-11-22T19:56:57.830Z,36.60
2018-11-22T19:59:30.480Z,33.65
2018-11-22T20:02:05.145Z,38.70
2018-11-22T20:04:37.896Z,34.70
2018-11-22T20:07:10.624Z,42.60
2018-11-22T20:09:43.453Z,38.38
2018-11-22T20:12:16.304Z,29.35
2018-11-22T20:14:48.975Z,37.20
2018-11-22T20:17:21.758Z,30.97
2018-11-22T20:19:54.457Z,38.92
2018-11-22T20:22:27.149Z,37.30
2018-11-22T20:24:59.853Z,37.40
2018-11-22T20:27:32.542Z,36.28
2018-11-22T20:30:08.872Z,36.88
2018-11-22T20:32:41.786Z,38.83
2018-11-22T20:35:16.353Z,39.40
2018-11-22T20:37:49.909Z,34.55
2018-11-22T20:40:23.733Z,39.78
2018-11-22T20:42:57.021Z,37.65
2018-11-22T20:45:30.471Z,37.35
2018-11-22T20:48:04.684Z,36.00
2018-11-22T20:50:37.835Z,38.95
2018-11-22T20:53:10.556Z,38.98
2018-11-22T20:55:43.225Z,35.10
2018-11-22T20:58:15.982Z,36.20
2018-11-22T21:00:48.692Z,32.65
2018-11-22T21:03:21.353Z,36.13
2018-11-22T21:05:54.072Z,31.80
2018-11-22T21:08:26.812Z,37.30
2018-11-22T21:10:59.610Z,40.28
2018-11-22T21:13:32.315Z,37.17
2018-11-22T21:16:05.267Z,42.50
2018-11-22T21:18:38.052Z,36.65
2018-11-22T21:21:10.743Z,39.45
2018-11-22T21:23:43.513Z,37.53
2018-11-22T21:26:16.162Z,39.58
2018-11-22T21:28:48.960Z,40.83
2018-11-22T21:31:21.634Z,32.13
2018-11-22T21:33:54.391Z,39.85
2018-11-22T21:36:27.196Z,38.98
2018-11-22T21:38:59.935Z,38.50
2018-11-22T21:41:32.592Z,37.95
2018-11-22T21:44:05.386Z,37.10
2018-11-22T21:46:38.144Z,37.13
2018-11-22T21:49:10.744Z,37.13
2018-11-22T21:51:43.465Z,35.35
2018-11-22T21:54:16.105Z,38.60
2018-11-22T21:56:48.807Z,40.88
2018-11-22T21:59:22.073Z,43.08
2018-11-22T22:01:54.701Z,40.83
2018-11-22T22:04:27.362Z,41.70
2018-11-22T22:06:59.945Z,44.55
2018-11-22T22:09:32.558Z,44.70
2018-11-22T22:12:05.243Z,44.00
2018-11-22T22:14:37.866Z,42.27
2018-11-22T22:17:10.569Z,41.50
2018-11-22T22:19:43.212Z,40.15
2018-11-22T22:22:15.878Z,43.52
2018-11-22T22:24:48.618Z,47.00
2018-11-22T22:27:21.350Z,43.55
2018-11-22T22:29:54.179Z,45.92
2018-11-22T22:32:26.880Z,42.48
2018-11-22T22:34:59.565Z,47.48
2018-11-22T22:37:32.200Z,48.08
2018-11-22T22:40:07.350Z,45.28
2018-11-22T22:42:41.124Z,50.58
2018-11-22T22:45:14.830Z,41.33
2018-11-22T22:47:48.305Z,47.80
2018-11-22T22:50:22.221Z,42.75
2018-11-22T22:52:56.196Z,40.63
2018-11-22T22:55:29.367Z,44.70
2018-11-22T22:58:01.994Z,45.30
2018-11-22T23:00:45.271Z,46.33
2018-11-22T23:03:18.013Z,49.88
2018-11-22T23:05:50.693Z,42.78
2018-11-22T23:08:23.306Z,49.95
2018-11-22T23:10:55.926Z,45.80
2018-11-22T23:13:28.619Z,45.60
2018-11-22T23:16:01.219Z,41.92
2018-11-22T23:18:33.897Z,42.03
2018-11-22T23:21:06.624Z,43.38
2018-11-22T23:23:39.227Z,41.95
2018-11-22T23:26:11.944Z,52.80
2018-11-22T23:28:44.670Z,42.38
2018-11-22T23:31:17.308Z,40.58
2018-11-22T23:33:49.941Z,46.70
2018-11-22T23:36:22.590Z,44.05
2018-11-22T23:38:55.267Z,45.23
2018-11-22T23:41:27.839Z,41.98
2018-11-22T23:44:00.534Z,41.15
2018-11-22T23:46:33.132Z,45.83
2018-11-22T23:49:05.826Z,37.53
2018-11-22T23:51:38.563Z,40.88
2018-11-22T23:54:11.271Z,49.75
2018-11-22T23:56:43.887Z,49.23
2018-11-22T23:59:16.467Z,45.85
